AirNav   Textron
 
 1183 users online  

01U Duckwater Airport
Duckwater, Nevada, USA


FAA INFORMATION EFFECTIVE 09 NOVEMBER 2017

Location

FAA Identifier: 01U
Lat/Long: 38-51-11.7000N / 115-38-04.8000W
38-51.195000N / 115-38.080000W
38.8532500 / -115.6346667
(estimated)
Elevation: 5133 ft. / 1564.5 m (surveyed)
Variation: 15E (1985)
From city: 6 miles SE of DUCKWATER, NV
Time zone: UTC -8 (UTC -7 during Daylight Saving Time)
Zip code: 89314

Airport Operations

Airport use: Open to the public
Activation date: 08/1964
Control tower: no
ARTCC: SALT LAKE CITY CENTER
FSS: RENO FLIGHT SERVICE STATION
NOTAMs facility: RNO (NOTAM-D service available)
Attendance: UNATNDD
Wind indicator: no
Segmented circle: no

Airport Communications

CTAF: 122.9

Airport Services

Airframe service: NONE
Powerplant service: NONE
Bottled oxygen: NONE
Bulk oxygen: NONE

Runway Information

Runway 15/33

Dimensions: 3400 x 80 ft. / 1036 x 24 m
Surface: dirt, in fair condition
RY SOFT AND OVERGROWN, UNSUITABLE FOR AICRAFT USE
RUNWAY 15  RUNWAY 33
Latitude: 38-51.541758N38-50.993515N
Longitude: 115-38.247048W115-38.099483W
Elevation: 5133.0 ft.5108.0 ft.
Gradient: 0.7% UP
Traffic pattern: leftleft
Runway heading: 153 magnetic, 168 true333 magnetic, 348 true
Markings: nonenone
Obstructions: none15 ft. road, 30 ft. from runway, 2:1 slope to clear
PLINE 1500 FT FROM RY END +35 FT, BOTH SIDES OF CNTRLN, MARKED W/ ORANGE BALL, 42:1 SLOPE.

Runway 3/21

Dimensions: 2700 x 75 ft. / 823 x 23 m
Surface: dirt, in fair condition
RY SOFT AND OVERGROWN, UNSUITABLE FOR AIRCRAFT USE.
RUNWAY 3  RUNWAY 21
Latitude: 38-50.939367N38-51.270198N
Longitude: 115-38.152457W115-37.772030W
Elevation: 5105.0 ft.5124.0 ft.
Gradient: 0.7% UP
Traffic pattern: leftleft
Runway heading: 027 magnetic, 042 true207 magnetic, 222 true
Markings: nonenone
Obstructions: 15 ft. road, 47 ft. right of centerline
PLINE 400 FT FROM RY END, +20 FT, BOTH SIDES OF CNTRLN, MARKED W/ORANGE BALL, 20:1 SLOPE.
15 ft. road, 47 ft. left of centerline

Airport Ownership and Management from official FAA records

Ownership: Publicly-owned
Owner: US BLM
PO BOX 12000
RENO, NV 89520
Phone 775-861-6400
Manager: UNKNOWN

Airport Operational Statistics

Aircraft operations: avg 33/month *
100% transient general aviation
* for 12-month period ending 31 August 2017

Additional Remarks

WATCH FOR LIVESTOCK ON RWYS.
RYS 03/21 & 15/33 HAVE UNCONTROLLED VEH ACCESS.
RY 03/21 +1 FT BERM FULL LENGTH NORTH SIDE, -2 FT DITCH FULL LENGTH SOUTH SIDE.
RY 15/33 +1 FT BERM BOTH SIDES OF RY.
RY 3, 2 STAKES N EDGE OF RY, 135 FT FROM RY END, +4 FT HIGH.

Instrument Procedures

There are no published instrument procedures at 01U.

Some nearby airports with instrument procedures:

KELY - Ely Airport (Yelland Field) (46 nm NE)
05U - Eureka Airport (48 nm N)
KTNX - Tonopah Test Range Airport (83 nm SW)
KTPH - Tonopah Airport (83 nm SW)
 
Loc | Ops | Rwys | IFR | FBO | Links
Com | Nav | Svcs | Stats | Notes


 
Area around 01U (Duckwater Airport)
 
Road maps at: MapQuest Bing Google
 
Aerial photo
No photo
 
Sectional chart

 
Airport distance calculator
Flying to Duckwater Airport? Find the distance to fly.

From to 01U

Sunrise and sunset
Times for 21-Nov-2017
 Local
(UTC-8)
 Zulu
(UTC)
Morning civil twilight06:0414:04
Sunrise06:3314:33
Sunset16:2400:24
Evening civil twilight16:5300:53

Current date and time
Zulu (UTC)  21-Nov-2017 22:45:55
Local (UTC-8)  21-Nov-2017 14:45:55
 
METAR
KELY 
45nm NE 
212153Z AUTO 36005KT 10SM CLR 16/03 A3036 RMK AO2 SLP226 T01610028
KP68 
48nm N 
212153Z AUTO 27005KT 17/03 A3036 RMK AO1 SLP228 T01670028
K05U 
48nm N 
212235Z AUTO 22004KT 10SM BKN100 17/03 A3037 RMK A01
TAF
KELY 
45nm NE 
211730Z 2118/2218 33004KT P6SM OVC040 FM212100 33006KT P6SM SCT050 BKN150 FM220300 18006KT P6SM SKC
NOTAMs
Click for the latest NOTAMs
NOTAMs are issued by the DoD/FAA and will open in a separate window not controlled by AirNav.

 

 
 

Would you like to see your business listed on this page?

 If your business provides an interesting product or service to pilots, flight crews, aircraft, or users of the Duckwater Airport, you should consider listing it here.  To start the listing process, click on the button below
 
Add a business
 

Other Pages about Duckwater Airport

Update a link
 
Copyright © AirNav, LLC. All rights reserved. Privacy Policy  Contact